Time;durP1;ratioP1;P1;durP2;ratioP2;P2;SDS_P1;SDS_P2;PMS_P1;PMS_P2;Temp;Humidity;BMP_temperature;BMP_pressure;BME280_temperature;BME280_humidity;BME280_pressure;Samples;Min_cycle;Max_cycle;Signal;HPM_P1;HPM_P2
2022/10/09 00:00:16;;;;;;;;;;;;;;;24.77;45.10;94750.22;5064770;28;8409;-58
2022/10/09 00:02:48;;;;;;;;;;;;;;;24.80;45.11;94748.47;5071881;28;7204;-58
2022/10/09 00:05:25;;;;;;;;;;;;;;;24.80;45.08;94742.97;5089248;28;7257;-58
2022/10/09 00:07:53;;;;;;;;;;;;;;;24.79;45.97;94739.47;5064547;28;8984;-58
2022/10/09 00:10:28;;;;;;;;;;;;;;;24.79;45.69;94738.72;5074408;28;9400;-58
2022/10/09 00:13:10;;;;;;;;;;;;;;;24.80;45.25;94740.19;5049838;28;7688;-59
2022/10/09 00:15:46;;;;;;;;;;;;;;;24.80;45.77;94742.97;5092300;28;8197;-58
2022/10/09 00:18:18;;;;;;;;;;;;;;;24.80;46.00;94742.97;5075186;28;8979;-59
2022/10/09 00:20:47;;;;;;;;;;;;;;;24.79;45.93;94733.97;5074290;28;7195;-58
2022/10/09 00:23:47;;;;;;;;;;;;;;;24.77;45.16;94732.97;5092670;28;7523;-59
2022/10/09 00:26:25;;;;;;;;;;;;;;;24.77;45.33;94733.72;5009850;28;9759;-58
2022/10/09 00:28:52;;;;;;;;;;;;;;;24.77;45.83;94725.47;5002328;28;9150;-58
2022/10/09 00:31:21;;;;;;;;;;;;;;;24.77;45.63;94722.72;4993592;28;6998;-59
2022/10/09 00:33:49;;;;;;;;;;;;;;;24.77;45.98;94725.47;5006328;28;7231;-59
2022/10/09 00:36:21;;;;;;;;;;;;;;;24.77;45.73;94722.72;5003701;28;7387;-59
2022/10/09 00:38:57;;;;;;;;;;;;;;;24.76;45.81;94721.19;5010597;28;7403;-58
2022/10/09 00:41:28;;;;;;;;;;;;;;;24.76;45.46;94710.19;5010543;28;6965;-59
2022/10/09 00:44:00;;;;;;;;;;;;;;;24.76;45.85;94718.44;4987521;28;9231;-59
2022/10/09 00:46:37;;;;;;;;;;;;;;;24.75;45.78;94707.97;5007371;28;7776;-58
2022/10/09 00:49:16;;;;;;;;;;;;;;;24.74;45.95;94701.66;5007341;28;6982;-58
2022/10/09 00:51:48;;;;;;;;;;;;;;;24.74;45.28;94707.16;4995533;28;7653;-59
2022/10/09 00:54:21;;;;;;;;;;;;;;;24.73;45.36;94702.16;5010440;28;8823;-59
2022/10/09 00:56:54;;;;;;;;;;;;;;;24.74;45.39;94707.16;4993913;28;7439;-59
2022/10/09 00:59:30;;;;;;;;;;;;;;;24.73;45.72;94688.41;4993853;28;7232;-59
2022/10/09 01:02:06;;;;;;;;;;;;;;;24.73;45.92;94697.41;5013229;28;7392;-58
2022/10/09 01:04:41;;;;;;;;;;;;;;;24.73;45.24;94689.16;5075019;28;9408;-58
2022/10/09 01:07:34;;;;;;;;;;;;;;;24.73;45.54;94685.66;5086307;28;7334;-59
2022/10/09 01:10:44;;;;;;;;;;;;;;;24.73;45.03;94686.41;5076099;28;7451;-59
2022/10/09 01:13:21;;;;;;;;;;;;;;;24.71;45.20;94683.41;5077712;28;7024;-59
2022/10/09 01:16:19;;;;;;;;;;;;;;;24.71;45.24;94686.16;5084248;28;7102;-58
2022/10/09 01:19:11;;;;;;;;;;;;;;;24.73;45.81;94677.41;5091102;28;9231;-59
2022/10/09 01:21:57;;;;;;;;;;;;;;;24.73;45.87;94671.91;5074504;28;6996;-58
2022/10/09 01:24:38;;;;;;;;;;;;;;;24.70;45.40;94676.41;5077390;28;7400;-58
2022/10/09 01:27:24;;;;;;;;;;;;;;;24.71;45.11;94673.16;5078254;28;9076;-59
2022/10/09 01:30:11;;;;;;;;;;;;;;;24.69;45.78;94672.91;5087801;28;8446;-59
2022/10/09 01:32:44;;;;;;;;;;;;;;;24.70;45.29;94670.91;5078443;28;8454;-59
2022/10/09 01:35:21;;;;;;;;;;;;;;;24.69;45.79;94669.38;5078257;28;7173;-59
2022/10/09 01:37:58;;;;;;;;;;;;;;;24.69;45.74;94666.63;5089718;28;7269;-59
2022/10/09 01:40:29;;;;;;;;;;;;;;;24.68;45.60;94659.66;5077880;28;9333;-59
2022/10/09 01:42:58;;;;;;;;;;;;;;;24.68;45.04;94654.88;5091832;28;9096;-58
2022/10/09 01:45:24;;;;;;;;;;;;;;;24.68;45.64;94654.88;5077474;28;7113;-59
2022/10/09 01:47:50;;;;;;;;;;;;;;;24.67;45.02;94652.63;5093557;28;7542;-58
2022/10/09 01:50:29;;;;;;;;;;;;;;;24.68;45.75;94652.13;5077331;28;6956;-59
2022/10/09 01:53:02;;;;;;;;;;;;;;;24.68;45.29;94652.13;5081467;28;7321;-58
2022/10/09 01:59:12;;;;;;;;;;;;;;;24.67;45.80;94639.66;5031387;28;7104;-59
2022/10/09 02:01:41;;;;;;;;;;;;;;;24.66;45.03;94640.88;5032419;28;7460;-58
2022/10/09 02:04:24;;;;;;;;;;;;;;;24.66;45.88;94634.66;5017771;28;6993;-58
2022/10/09 02:06:51;;;;;;;;;;;;;;;24.66;45.21;94626.41;5012516;28;7322;-59
2022/10/09 02:09:28;;;;;;;;;;;;;;;24.66;45.32;94629.16;5027378;28;7195;-58
2022/10/09 02:12:07;;;;;;;;;;;;;;;24.65;45.30;94622.88;5016048;28;8148;-59
2022/10/09 02:14:49;;;;;;;;;;;;;;;24.65;45.76;94622.88;5012932;28;9415;-58
2022/10/09 02:17:33;;;;;;;;;;;;;;;24.66;45.56;94624.38;5023355;28;7232;-60
2022/10/09 02:20:20;;;;;;;;;;;;;;;24.66;45.78;94618.16;5014063;28;7225;-60
2022/10/09 02:23:01;;;;;;;;;;;;;;;24.66;45.83;94624.38;5032048;28;8599;-59
2022/10/09 02:25:42;;;;;;;;;;;;;;;24.65;45.35;94617.38;5018493;28;9668;-60
2022/10/09 02:28:10;;;;;;;;;;;;;;;24.66;45.39;94615.41;5030135;28;9425;-59
2022/10/09 02:31:19;;;;;;;;;;;;;;;24.65;45.67;94622.13;5014491;28;9019;-60
2022/10/09 02:33:48;;;;;;;;;;;;;;;24.65;45.41;94620.13;4976678;28;7271;-60
2022/10/09 02:36:15;;;;;;;;;;;;;;;24.65;45.65;94616.63;4993591;28;7045;-60
2022/10/09 02:38:41;;;;;;;;;;;;;;;24.64;45.71;94610.38;5010381;28;7314;-59
2022/10/09 02:41:15;;;;;;;;;;;;;;;24.63;45.24;94613.63;4993912;28;7272;-60
2022/10/09 02:43:41;;;;;;;;;;;;;;;24.64;45.86;94613.13;4985237;28;7179;-59
2022/10/09 02:46:09;;;;;;;;;;;;;;;24.63;45.47;94608.88;5008389;28;7179;-59
2022/10/09 02:48:37;;;;;;;;;;;;;;;24.63;45.24;94613.63;5011090;28;6976;-59
2022/10/09 02:51:05;;;;;;;;;;;;;;;24.62;45.23;94614.91;5007368;28;7341;-60
2022/10/09 02:53:42;;;;;;;;;;;;;;;24.62;45.84;94615.63;5009424;28;9163;-60
2022/10/09 02:56:19;;;;;;;;;;;;;;;24.61;45.27;94610.63;5010994;28;7304;-59
2022/10/09 02:58:45;;;;;;;;;;;;;;;24.60;45.44;94604.38;4993191;28;7064;-60
2022/10/09 03:01:14;;;;;;;;;;;;;;;24.60;45.54;94607.13;5007597;28;7203;-60
2022/10/09 03:03:45;;;;;;;;;;;;;;;24.61;45.66;94611.38;5007846;28;9401;-60
2022/10/09 03:06:23;;;;;;;;;;;;;;;24.60;45.51;94609.88;5000452;28;6998;-60
2022/10/09 03:08:55;;;;;;;;;;;;;;;24.61;45.41;94611.38;4993403;28;7423;-59
2022/10/09 03:11:25;;;;;;;;;;;;;;;24.62;45.32;94607.38;5063471;28;7195;-60
2022/10/09 03:14:09;;;;;;;;;;;;;;;24.61;45.39;94610.63;5058517;28;8916;-60
2022/10/09 03:16:42;;;;;;;;;;;;;;;24.60;45.90;94603.63;5080987;28;7631;-60
2022/10/09 03:19:09;;;;;;;;;;;;;;;24.60;45.25;94603.63;5081243;28;7128;-60
2022/10/09 03:21:38;;;;;;;;;;;;;;;24.59;45.78;94605.63;5075509;28;7004;-60
2022/10/09 03:24:07;;;;;;;;;;;;;;;24.59;45.36;94611.13;5074906;28;7260;-60
2022/10/09 03:26:35;;;;;;;;;;;;;;;24.61;45.60;94605.88;5086281;28;7486;-59
2022/10/09 03:29:01;;;;;;;;;;;;;;;24.60;45.29;94603.63;5074776;28;7538;-60
2022/10/09 03:31:29;;;;;;;;;;;;;;;24.58;45.59;94606.88;5091177;28;6956;-60
2022/10/09 03:33:57;;;;;;;;;;;;;;;24.59;45.11;94600.16;5078990;28;7267;-60
2022/10/09 03:36:33;;;;;;;;;;;;;;;24.59;45.36;94608.38;5074596;28;7442;-60
2022/10/09 03:39:05;;;;;;;;;;;;;;;24.60;45.74;94606.38;5091745;28;9505;-60
2022/10/09 03:41:40;;;;;;;;;;;;;;;24.57;45.75;94602.63;5075241;28;7366;-60
2022/10/09 03:44:06;;;;;;;;;;;;;;;24.58;45.61;94606.13;5069534;28;7349;-60
2022/10/09 03:46:32;;;;;;;;;;;;;;;24.57;45.27;94599.91;5079087;28;7308;-60
2022/10/09 03:48:58;;;;;;;;;;;;;;;24.57;45.16;94599.91;5069087;28;7398;-60
2022/10/09 03:51:28;;;;;;;;;;;;;;;24.58;45.22;94601.38;5071551;28;7183;-60
2022/10/09 03:53:57;;;;;;;;;;;;;;;24.58;45.03;94609.63;5074987;28;9082;-60
2022/10/09 03:56:32;;;;;;;;;;;;;;;24.58;45.54;94601.38;5071969;28;7307;-60
2022/10/09 03:59:06;;;;;;;;;;;;;;;24.58;45.69;94600.63;5070528;28;7271;-60
2022/10/09 04:01:35;;;;;;;;;;;;;;;24.57;45.61;94593.63;5074467;28;8679;-60
2022/10/09 04:04:07;;;;;;;;;;;;;;;24.56;45.76;94601.13;5074107;28;7956;-60
2022/10/09 04:06:33;;;;;;;;;;;;;;;24.57;45.20;94596.38;5074249;28;7664;-60
2022/10/09 04:09:15;;;;;;;;;;;;;;;24.58;45.79;94600.63;5063351;28;7427;-60
2022/10/09 04:11:58;;;;;;;;;;;;;;;24.56;45.34;94581.13;5092425;28;7070;-60
2022/10/09 04:14:26;;;;;;;;;;;;;;;24.55;45.38;94596.13;5081906;28;7143;-60
2022/10/09 04:16:56;;;;;;;;;;;;;;;24.53;45.22;94588.38;5071497;28;7013;-60
2022/10/09 04:19:32;;;;;;;;;;;;;;;24.54;45.77;94598.13;5069178;28;7351;-61
2022/10/09 04:21:58;;;;;;;;;;;;;;;24.55;45.42;94596.13;5074754;28;6991;-60
2022/10/09 04:24:24;;;;;;;;;;;;;;;24.55;45.78;94590.63;5074213;28;9197;-60
2022/10/09 04:27:22;;;;;;;;;;;;;;;24.53;45.21;94591.13;5093045;28;6972;-60
2022/10/09 04:29:47;;;;;;;;;;;;;;;24.50;46.01;94589.38;5034454;28;7012;-60
2022/10/09 04:32:26;;;;;;;;;;;;;;;24.52;45.16;94588.88;5013016;28;7241;-60
2022/10/09 04:34:52;;;;;;;;;;;;;;;24.53;45.47;94593.13;5028729;28;6932;-60
2022/10/09 04:37:27;;;;;;;;;;;;;;;24.53;45.62;94588.38;5032221;28;7315;-60
2022/10/09 04:39:53;;;;;;;;;;;;;;;24.54;45.07;94584.38;5026144;28;7263;-61
2022/10/09 04:42:28;;;;;;;;;;;;;;;24.53;45.52;94582.88;5020378;28;9457;-59
2022/10/09 04:44:54;;;;;;;;;;;;;;;24.52;45.74;94586.88;5027612;28;9332;-60
2022/10/09 04:47:20;;;;;;;;;;;;;;;24.51;45.62;94590.13;5029368;28;9572;-60
2022/10/09 04:49:46;;;;;;;;;;;;;;;24.52;45.37;94586.88;5026575;28;9066;-60
2022/10/09 04:52:12;;;;;;;;;;;;;;;24.53;45.39;94587.63;5026594;28;9087;-61
2022/10/09 04:54:41;;;;;;;;;;;;;;;24.52;45.32;94589.63;5013229;28;7018;-60
2022/10/09 04:57:40;;;;;;;;;;;;;;;24.50;45.71;94583.88;5016599;28;7055;-60
2022/10/09 05:00:09;;;;;;;;;;;;;;;24.51;45.88;94584.63;4953913;28;8620;-60
2022/10/09 05:02:35;;;;;;;;;;;;;;;24.50;45.32;94583.88;4952373;28;9243;-60
2022/10/09 05:05:01;;;;;;;;;;;;;;;24.50;45.63;94583.88;4967698;28;7588;-59
2022/10/09 05:07:39;;;;;;;;;;;;;;;24.49;45.61;94579.63;5015804;28;7464;-60
2022/10/09 05:10:06;;;;;;;;;;;;;;;24.50;45.72;94592.13;5019792;28;6864;-60
2022/10/09 05:12:49;;;;;;;;;;;;;;;24.50;45.34;94589.38;5020269;28;9131;-61
2022/10/09 05:15:29;;;;;;;;;;;;;;;24.51;45.62;94587.38;5012962;28;7078;-60
2022/10/09 05:17:56;;;;;;;;;;;;;;;24.50;45.25;94580.38;5013381;28;9411;-60
2022/10/09 05:20:23;;;;;;;;;;;;;;;24.49;45.32;94584.38;5029079;28;7932;-60
2022/10/09 05:23:01;;;;;;;;;;;;;;;24.49;45.54;94573.38;5012806;28;7520;-60
2022/10/09 05:25:30;;;;;;;;;;;;;;;24.49;45.76;94585.13;5012757;28;7407;-60
2022/10/09 05:27:59;;;;;;;;;;;;;;;24.49;45.74;94581.63;5029089;28;7232;-60
2022/10/09 05:30:25;;;;;;;;;;;;;;;24.48;45.80;94583.63;5012489;28;7012;-60
2022/10/09 05:32:51;;;;;;;;;;;;;;;24.47;45.75;94579.38;5014396;28;9384;-60
2022/10/09 05:35:19;;;;;;;;;;;;;;;24.48;45.45;94586.38;5048984;28;7006;-60
2022/10/09 05:37:54;;;;;;;;;;;;;;;24.46;45.53;94582.63;5070053;28;6907;-60
2022/10/09 05:40:20;;;;;;;;;;;;;;;24.47;45.58;94593.13;5090761;28;7281;-60
2022/10/09 05:42:51;;;;;;;;;;;;;;;24.47;45.48;94586.84;5073120;28;9184;-60
2022/10/09 05:45:16;;;;;;;;;;;;;;;24.46;45.24;94583.38;5072911;28;7279;-60
2022/10/09 05:47:42;;;;;;;;;;;;;;;24.46;45.17;94577.88;5087142;28;9978;-60
2022/10/09 05:50:10;;;;;;;;;;;;;;;24.47;45.62;94584.88;5087580;28;6992;-61
2022/10/09 05:52:41;;;;;;;;;;;;;;;24.47;45.57;94590.38;5094656;28;7108;-60
2022/10/09 05:55:07;;;;;;;;;;;;;;;24.46;45.87;94588.88;5082250;28;7079;-59
2022/10/09 05:57:34;;;;;;;;;;;;;;;24.48;45.35;94586.38;5066230;28;8595;-60
2022/10/09 05:59:59;;;;;;;;;;;;;;;24.48;45.86;94596.63;5076727;28;7630;-60
2022/10/09 06:02:25;;;;;;;;;;;;;;;24.45;45.78;94587.38;5074365;28;9377;-60
2022/10/09 06:04:52;;;;;;;;;;;;;;;24.46;45.46;94588.13;5074008;28;9250;-60
2022/10/09 06:07:20;;;;;;;;;;;;;;;24.44;45.39;94585.88;5059596;28;7189;-60
2022/10/09 06:09:54;;;;;;;;;;;;;;;24.47;45.68;94593.13;5077231;28;7036;-60
2022/10/09 06:12:26;;;;;;;;;;;;;;;24.46;44.95;94602.63;5074125;28;7137;-60
2022/10/09 06:14:52;;;;;;;;;;;;;;;24.44;45.40;94596.88;5085526;28;7572;-61
2022/10/09 06:17:31;;;;;;;;;;;;;;;24.47;45.76;94600.59;5076779;28;7821;-59
2022/10/09 06:19:59;;;;;;;;;;;;;;;24.45;45.69;94603.88;5071091;28;7477;-59
2022/10/09 06:22:30;;;;;;;;;;;;;;;24.45;45.28;94603.09;5076349;28;6878;-60
2022/10/09 06:25:04;;;;;;;;;;;;;;;24.46;45.37;94604.63;5076405;28;6991;-60
2022/10/09 06:27:46;;;;;;;;;;;;;;;24.45;45.79;94605.84;5072983;28;9564;-60
2022/10/09 06:30:18;;;;;;;;;;;;;;;24.47;45.03;94617.09;5076078;28;10157;-59
2022/10/09 06:32:51;;;;;;;;;;;;;;;24.46;45.42;94616.38;5076242;28;7225;-60
2022/10/09 06:35:20;;;;;;;;;;;;;;;24.46;45.12;94612.88;5076367;28;9465;-59
2022/10/09 06:37:47;;;;;;;;;;;;;;;24.44;46.11;94609.88;5070014;28;7216;-59
2022/10/09 06:40:15;;;;;;;;;;;;;;;24.45;45.05;94614.88;5068366;28;7232;-60
2022/10/09 06:42:47;;;;;;;;;;;;;;;24.44;46.06;94609.88;5069635;28;8943;-60
2022/10/09 06:45:13;;;;;;;;;;;;;;;24.44;45.61;94610.63;5090042;28;7076;-60
2022/10/09 06:47:39;;;;;;;;;;;;;;;24.45;45.56;94614.88;5072491;28;7677;-60
2022/10/09 06:50:10;;;;;;;;;;;;;;;24.44;45.76;94609.88;5072362;28;7291;-60
2022/10/09 06:52:36;;;;;;;;;;;;;;;24.44;45.08;94616.13;5076259;28;7408;-60
2022/10/09 06:55:05;;;;;;;;;;;;;;;24.42;45.60;94615.88;5094281;28;7267;-60
2022/10/09 06:57:32;;;;;;;;;;;;;;;24.42;45.87;94621.38;5074984;28;9466;-60
2022/10/09 07:00:03;;;;;;;;;;;;;;;24.44;45.18;94618.88;5076135;28;7244;-60
2022/10/09 07:02:45;;;;;;;;;;;;;;;24.43;45.24;94622.84;5085519;28;7391;-60
2022/10/09 07:05:22;;;;;;;;;;;;;;;24.43;45.74;94616.59;5075765;28;7550;-61
2022/10/09 07:07:59;;;;;;;;;;;;;;;24.42;45.71;94626.13;5093888;28;7024;-60
2022/10/09 07:10:33;;;;;;;;;;;;;;;24.41;45.28;94624.59;5075558;28;7337;-60
2022/10/09 07:13:31;;;;;;;;;;;;;;;24.40;45.89;94621.09;5084516;28;7206;-61
2022/10/09 07:16:02;;;;;;;;;;;;;;;24.39;45.76;94622.34;4994744;28;7243;-59
2022/10/09 07:18:31;;;;;;;;;;;;;;;24.40;45.46;94626.59;5011231;28;7000;-60
2022/10/09 07:21:07;;;;;;;;;;;;;;;24.41;45.84;94630.09;5010189;28;7303;-60
2022/10/09 07:23:46;;;;;;;;;;;;;;;24.41;45.18;94630.09;4994715;28;9070;-60
2022/10/09 07:26:26;;;;;;;;;;;;;;;24.40;46.00;94634.84;5002179;28;7496;-59
2022/10/09 07:28:52;;;;;;;;;;;;;;;24.40;45.25;94626.59;5011047;28;7274;-60
2022/10/09 07:31:27;;;;;;;;;;;;;;;24.40;45.75;94631.34;5011154;28;8683;-60
2022/10/09 07:33:55;;;;;;;;;;;;;;;24.40;45.22;94634.84;5009833;28;9124;-60
2022/10/09 07:36:24;;;;;;;;;;;;;;;24.40;45.84;94634.84;5010636;28;7220;-60
2022/10/09 07:38:56;;;;;;;;;;;;;;;24.39;45.66;94629.84;4994228;28;7290;-60
2022/10/09 07:41:26;;;;;;;;;;;;;;;24.40;45.70;94637.59;5010242;28;9265;-60
2022/10/09 07:43:54;;;;;;;;;;;;;;;24.39;45.48;94627.84;5009697;28;7868;-61
2022/10/09 07:46:22;;;;;;;;;;;;;;;24.39;46.36;94632.59;5010390;28;7250;-60
2022/10/09 07:48:51;;;;;;;;;;;;;;;24.38;45.74;94625.59;5010189;28;7260;-60
2022/10/09 07:51:27;;;;;;;;;;;;;;;24.38;46.14;94637.34;5040956;28;7253;-60
2022/10/09 07:53:53;;;;;;;;;;;;;;;24.37;46.24;94630.34;5074765;28;7708;-60
2022/10/09 07:56:23;;;;;;;;;;;;;;;24.37;45.78;94635.84;5081492;28;8805;-60
2022/10/09 07:58:56;;;;;;;;;;;;;;;24.37;45.89;94635.84;5070272;28;7260;-60
2022/10/09 08:01:27;;;;;;;;;;;;;;;24.38;46.25;94636.59;5071137;28;7770;-60
2022/10/09 08:03:57;;;;;;;;;;;;;;;24.37;45.67;94635.84;5083598;28;7219;-60
2022/10/09 08:06:23;;;;;;;;;;;;;;;24.37;45.88;94629.59;5085415;28;6989;-60
2022/10/09 08:08:53;;;;;;;;;;;;;;;24.37;45.94;94633.09;5071363;28;7270;-60
2022/10/09 08:11:23;;;;;;;;;;;;;;;24.37;45.44;94635.84;5086160;28;7128;-60
2022/10/09 08:13:50;;;;;;;;;;;;;;;24.37;45.51;94635.84;5064686;28;6973;-60
2022/10/09 08:16:28;;;;;;;;;;;;;;;24.37;45.52;94630.34;5072093;28;7553;-60
2022/10/09 08:19:02;;;;;;;;;;;;;;;24.38;46.42;94631.84;5074446;28;7432;-60
2022/10/09 08:21:31;;;;;;;;;;;;;;;24.39;45.82;94636.09;5083219;28;7281;-60
2022/10/09 08:23:58;;;;;;;;;;;;;;;24.37;45.49;94630.34;5068445;28;7367;-60
2022/10/09 08:26:29;;;;;;;;;;;;;;;24.39;45.67;94629.84;5074090;28;7269;-59
2022/10/09 08:29:04;;;;;;;;;;;;;;;24.36;45.91;94634.34;5088271;28;8521;-60
2022/10/09 08:31:32;;;;;;;;;;;;;;;24.38;46.10;94631.84;5070881;28;7184;-60
2022/10/09 08:34:04;;;;;;;;;;;;;;;24.36;45.71;94633.59;5085278;28;9029;-60
2022/10/09 08:36:34;;;;;;;;;;;;;;;24.37;45.74;94632.34;5073800;28;9765;-60
2022/10/09 08:39:00;;;;;;;;;;;;;;;24.37;45.77;94635.84;5073147;28;7790;-60
2022/10/09 08:41:40;;;;;;;;;;;;;;;24.36;45.81;94644.59;5078730;28;7347;-60
2022/10/09 08:44:15;;;;;;;;;;;;;;;24.37;46.13;94629.59;5071150;28;7409;-60
2022/10/09 08:46:57;;;;;;;;;;;;;;;24.37;45.38;94644.09;5090505;28;7047;-60
2022/10/09 08:49:35;;;;;;;;;;;;;;;24.36;46.34;94633.59;5073332;28;7267;-60
2022/10/09 08:52:27;;;;;;;;;;;;;;;24.36;45.25;94644.59;5074677;28;7243;-60
2022/10/09 08:55:23;;;;;;;;;;;;;;;24.34;46.11;94642.31;5087111;28;8336;-60
2022/10/09 08:58:03;;;;;;;;;;;;;;;24.35;45.84;94645.84;5041901;28;10269;-60
2022/10/09 09:00:52;;;;;;;;;;;;;;;24.34;46.11;94641.56;5048793;28;8696;-60
2022/10/09 09:03:55;;;;;;;;;;;;;;;24.35;46.42;94641.09;5025633;28;7284;-60
2022/10/09 09:07:11;;;;;;;;;;;;;;;24.34;46.01;94630.56;5048765;28;7394;-61
2022/10/09 09:10:14;;;;;;;;;;;;;;;24.33;46.04;94632.59;4977910;28;6982;-60
2022/10/09 09:13:17;;;;;;;;;;;;;;;24.33;45.50;94629.84;4988201;28;7239;-61
2022/10/09 09:16:11;;;;;;;;;;;;;;;24.32;46.17;94628.34;4982533;28;7232;-61
2022/10/09 09:19:12;;;;;;;;;;;;;;;24.34;46.07;94630.56;4980755;28;9314;-61
2022/10/09 09:21:56;;;;;;;;;;;;;;;24.33;45.52;94624.34;4990188;28;7049;-60
2022/10/09 09:24:37;;;;;;;;;;;;;;;24.33;46.00;94629.09;4989066;28;8926;-60
2022/10/09 09:27:14;;;;;;;;;;;;;;;24.32;45.48;94628.34;4982268;28;8158;-61
2022/10/09 09:30:19;;;;;;;;;;;;;;;24.33;45.91;94626.34;4986863;28;7529;-60
2022/10/09 09:33:10;;;;;;;;;;;;;;;24.33;46.01;94629.84;4983482;28;7278;-61
2022/10/09 09:36:25;;;;;;;;;;;;;;;24.33;46.26;94629.84;4991434;28;9712;-60
2022/10/09 09:38:52;;;;;;;;;;;;;;;24.32;45.64;94622.84;4955960;28;7521;-61
2022/10/09 09:41:19;;;;;;;;;;;;;;;24.33;46.17;94626.34;4938382;28;7254;-61
2022/10/09 09:44:03;;;;;;;;;;;;;;;24.33;45.88;94629.84;4949862;28;7206;-61
2022/10/09 09:46:36;;;;;;;;;;;;;;;24.33;45.53;94627.09;4989681;28;6953;-60
2022/10/09 09:49:13;;;;;;;;;;;;;;;24.33;45.68;94621.59;4995980;28;7184;-61
2022/10/09 09:51:39;;;;;;;;;;;;;;;24.35;45.45;94626.59;4996570;28;9282;-59
2022/10/09 09:54:16;;;;;;;;;;;;;;;24.32;45.58;94622.84;4997787;28;7240;-60
2022/10/09 09:56:56;;;;;;;;;;;;;;;24.34;46.02;94620.34;4996342;28;7433;-60
2022/10/09 09:59:32;;;;;;;;;;;;;;;24.34;45.48;94625.84;5002617;28;7216;-60
2022/10/09 10:02:21;;;;;;;;;;;;;;;24.34;46.24;94625.06;5009062;28;7499;-60
2022/10/09 10:04:52;;;;;;;;;;;;;;;24.34;46.13;94619.56;5001536;28;7491;-60
2022/10/09 10:07:37;;;;;;;;;;;;;;;24.33;45.60;94618.84;5012246;28;7004;-60
2022/10/09 10:10:22;;;;;;;;;;;;;;;24.32;45.95;94622.84;4986406;28;7201;-60
2022/10/09 10:12:50;;;;;;;;;;;;;;;24.33;45.80;94618.09;5040474;28;7469;-60
2022/10/09 10:15:25;;;;;;;;;;;;;;;24.34;46.33;94614.84;5078179;28;9291;-60
2022/10/09 10:18:11;;;;;;;;;;;;;;;24.31;46.27;94615.84;5092668;28;7295;-60
2022/10/09 10:20:47;;;;;;;;;;;;;;;24.33;45.47;94618.84;5090407;28;6985;-60
2022/10/09 10:23:41;;;;;;;;;;;;;;;24.34;46.32;94614.09;5082723;28;7101;-59
2022/10/09 10:26:24;;;;;;;;;;;;;;;24.32;46.06;94608.34;5071128;28;7239;-60
2022/10/09 10:29:02;;;;;;;;;;;;;;;24.32;45.28;94614.59;5079689;28;7220;-60
2022/10/09 10:31:39;;;;;;;;;;;;;;;24.33;46.18;94612.59;5057237;28;7409;-60
2022/10/09 10:34:16;;;;;;;;;;;;;;;24.34;45.66;94606.59;5072802;28;7266;-59
2022/10/09 10:36:45;;;;;;;;;;;;;;;24.33;45.97;94604.34;5090143;28;7278;-60
2022/10/09 10:39:30;;;;;;;;;;;;;;;24.33;45.85;94604.34;5079737;28;9288;-60
2022/10/09 10:42:03;;;;;;;;;;;;;;;24.33;45.89;94601.59;5072875;28;9150;-60
2022/10/09 10:44:48;;;;;;;;;;;;;;;24.33;45.85;94598.84;5056075;28;7453;-60
2022/10/09 10:47:22;;;;;;;;;;;;;;;24.34;45.77;94603.09;5092936;28;6961;-60
2022/10/09 10:49:52;;;;;;;;;;;;;;;24.32;46.11;94595.34;5093667;28;7486;-60
2022/10/09 10:52:33;;;;;;;;;;;;;;;24.33;46.34;94601.59;5076293;28;7108;-60
2022/10/09 10:55:27;;;;;;;;;;;;;;;24.31;46.08;94596.59;5094057;28;8192;-60
2022/10/09 10:58:02;;;;;;;;;;;;;;;24.32;46.17;94598.09;5075491;28;7337;-60
2022/10/09 11:01:10;;;;;;;;;;;;;;;24.30;46.38;94597.84;5090029;28;7476;-61
2022/10/09 11:04:17;;;;;;;;;;;;;;;24.33;45.91;94598.84;5010833;28;7222;-60
2022/10/09 11:07:16;;;;;;;;;;;;;;;24.29;46.49;94599.09;4952663;28;9222;-59
2022/10/09 11:09:58;;;;;;;;;;;;;;;24.35;46.16;94599.84;4949522;28;9096;-59
2022/10/09 11:12:57;;;;;;;;;;;;;;;24.34;46.00;94598.34;4953087;28;7233;-60
2022/10/09 11:15:58;;;;;;;;;;;;;;;24.31;46.42;94593.88;4950639;28;7478;-60
2022/10/09 11:18:39;;;;;;;;;;;;;;;24.30;45.94;94595.09;4933921;29;8703;-60
2022/10/09 11:21:45;;;;;;;;;;;;;;;24.31;46.34;94593.88;4932878;29;7037;-60
2022/10/09 11:24:46;;;;;;;;;;;;;;;24.32;46.18;94594.59;4932123;29;7153;-60
2022/10/09 11:28:06;;;;;;;;;;;;;;;24.32;46.13;94592.59;4931838;29;7883;-60
2022/10/09 11:30:46;;;;;;;;;;;;;;;24.30;46.13;94586.84;4862236;29;7242;-60
2022/10/09 11:33:27;;;;;;;;;;;;;;;24.31;45.60;94582.88;4841874;29;9039;-60
2022/10/09 11:36:06;;;;;;;;;;;;;;;24.31;46.44;94574.63;4866037;29;7484;-60
2022/10/09 11:38:38;;;;;;;;;;;;;;;24.31;46.08;94574.63;4865577;29;7678;-59
2022/10/09 11:41:06;;;;;;;;;;;;;;;24.29;46.25;94570.84;4877678;29;7009;-59
2022/10/09 11:43:50;;;;;;;;;;;;;;;24.30;46.40;94578.59;4922808;28;7515;-60
2022/10/09 11:46:50;;;;;;;;;;;;;;;24.31;45.70;94565.63;4963146;28;7056;-60
2022/10/09 11:49:23;;;;;;;;;;;;;;;24.30;45.90;94564.84;4909178;29;7282;-60
2022/10/09 11:52:07;;;;;;;;;;;;;;;24.31;45.85;94566.38;4911041;29;7530;-60
2022/10/09 11:54:45;;;;;;;;;;;;;;;24.32;46.09;94565.09;4927738;28;7417;-60
2022/10/09 11:57:40;;;;;;;;;;;;;;;24.35;46.36;94566.13;4952167;28;7388;-60
2022/10/09 12:00:11;;;;;;;;;;;;;;;24.35;46.10;94561.38;4948873;28;7040;-60
2022/10/09 12:02:58;;;;;;;;;;;;;;;24.34;46.20;94548.09;4936015;28;7305;-60
2022/10/09 12:05:36;;;;;;;;;;;;;;;24.34;45.99;94546.13;4972242;28;7172;-60
2022/10/09 12:08:35;;;;;;;;;;;;;;;24.33;45.91;94547.38;5000427;28;7423;-60
2022/10/09 12:11:18;;;;;;;;;;;;;;;24.33;46.21;94536.38;4992647;28;8986;-60
2022/10/09 12:13:49;;;;;;;;;;;;;;;24.32;46.38;94534.13;4989491;28;7010;-60
2022/10/09 12:16:32;;;;;;;;;;;;;;;24.31;46.06;94538.13;5006130;28;9123;-60
2022/10/09 12:19:12;;;;;;;;;;;;;;;24.32;45.82;94536.88;5009557;28;7203;-60
2022/10/09 12:22:06;;;;;;;;;;;;;;;24.30;45.86;94526.38;4986164;28;7104;-59
2022/10/09 12:25:02;;;;;;;;;;;;;;;24.30;46.36;94528.38;5010586;28;7309;-60
2022/10/09 12:27:37;;;;;;;;;;;;;;;24.29;45.87;94524.88;5071470;28;7233;-61
2022/10/09 12:30:10;;;;;;;;;;;;;;;24.28;46.48;94523.38;5072154;28;7092;-60
2022/10/09 12:32:54;;;;;;;;;;;;;;;24.29;45.63;94518.63;5092376;28;8260;-60
2022/10/09 12:35:40;;;;;;;;;;;;;;;24.29;46.05;94522.13;5074375;28;9249;-60
2022/10/09 12:38:30;;;;;;;;;;;;;;;24.29;46.24;94513.13;5076550;28;7125;-60
2022/10/09 12:41:04;;;;;;;;;;;;;;;24.30;45.63;94518.13;5091150;28;6999;-59
2022/10/09 12:43:35;;;;;;;;;;;;;;;24.31;46.30;94505.16;5073030;28;7005;-60
2022/10/09 12:46:06;;;;;;;;;;;;;;;24.32;45.46;94506.63;5073839;28;7633;-59
2022/10/09 12:48:38;;;;;;;;;;;;;;;24.31;46.04;94513.38;5080424;28;7294;-59
2022/10/09 12:51:20;;;;;;;;;;;;;;;24.29;45.72;94508.41;5090781;28;6991;-61
2022/10/09 12:53:50;;;;;;;;;;;;;;;24.29;45.63;94500.16;5090230;28;7305;-60
2022/10/09 12:56:24;;;;;;;;;;;;;;;24.29;45.66;94502.16;5087380;28;8738;-61
2022/10/09 12:58:54;;;;;;;;;;;;;;;24.30;46.33;94506.38;5066607;28;7020;-60
2022/10/09 13:01:23;;;;;;;;;;;;;;;24.31;46.23;94499.66;5092959;28;6975;-59
2022/10/09 13:04:04;;;;;;;;;;;;;;;24.30;46.11;94498.88;5083963;28;6959;-60
2022/10/09 13:06:51;;;;;;;;;;;;;;;24.27;45.85;94497.13;5074930;28;9064;-60
2022/10/09 13:09:44;;;;;;;;;;;;;;;24.27;46.14;94497.13;5095968;28;9412;-59
2022/10/09 13:12:24;;;;;;;;;;;;;;;24.27;45.66;94494.38;5067682;28;8756;-60
2022/10/09 13:15:05;;;;;;;;;;;;;;;24.25;46.29;94485.88;5074568;28;9801;-60
2022/10/09 13:17:40;;;;;;;;;;;;;;;24.27;45.76;94488.16;5096078;28;7269;-60
2022/10/09 13:20:30;;;;;;;;;;;;;;;24.27;45.97;94488.16;5087764;28;7112;-60
2022/10/09 13:23:01;;;;;;;;;;;;;;;24.27;46.14;94477.16;5083116;28;7397;-60
2022/10/09 13:25:42;;;;;;;;;;;;;;;24.28;45.80;94479.41;5077530;28;7225;-60
2022/10/09 13:28:19;;;;;;;;;;;;;;;24.27;46.08;94474.41;5077057;28;7000;-60
2022/10/09 13:30:54;;;;;;;;;;;;;;;24.26;45.98;94481.91;5071578;28;7249;-60
2022/10/09 13:33:20;;;;;;;;;;;;;;;24.26;45.68;94479.16;5060710;28;7782;-60
2022/10/09 13:35:47;;;;;;;;;;;;;;;24.27;46.04;94471.66;5095757;28;9311;-60
2022/10/09 13:38:45;;;;;;;;;;;;;;;24.29;45.71;94475.41;5078674;28;7607;-60
2022/10/09 13:41:24;;;;;;;;;;;;;;;24.28;45.65;94476.66;5012688;28;6992;-60
2022/10/09 13:43:52;;;;;;;;;;;;;;;24.28;45.57;94465.66;5012707;28;8922;-60
2022/10/09 13:46:29;;;;;;;;;;;;;;;24.28;46.24;94462.91;5012029;28;7310;-59
2022/10/09 13:48:55;;;;;;;;;;;;;;;24.30;45.81;94465.16;5002037;28;7120;-60